Thunder radar more information blitzortung!


Radar de pluja more information rain snow radar


Visita la nostra xarxa de llocs de meteo:

Template documentation
and downloads

And another site



No particular awareness of the weather is required.    There are no Weather-warnings

Pagina Historial Weather Underground text

Diari Resum Novembre 17, 2017 Unitats:  Imperial    Mètric   Tant
« Previous Dia
SegĂźent Dia »
Diari Setmana Mensual Anual Personalitzada
  Maxima: Minima: Media:
Temperatura: 64.2 °F 38.3 °F 54 °F
Punt de rosada: 41.2 °F 25.5 °F 33.3 °F
Humitat: 60 % 39 % 46 %
Wind Speed: 4.6 mph 0 mph 1.6 mph
RĂ fegues de vent: 4.6 mph - -
Vent:- - SSE
Pression baro: 30.2 in 30.1 in -
Precipitacions: 0 in    
Historical Graphs
 
 
Dades de taula per Novembre 17, 2017
Temps Temperatura Punt de rosada Pression baro Vent Wind Speed RĂ fegues de vent Humitat Rainfall Rate (Hourly)
00:00 44.2 °F 29.1 °F 30.2 in NNE 2.3 mph 2.3 mph 55 % 0 in
00:05 43.9 °F 28.8 °F 30.2 in Calm     55 % 0 in
00:15 38.7 °F 25.5 °F 30.1 in WNW 1 mph 2 mph 59 % 0 in
00:25 38.7 °F 25.5 °F 30.1 in WNW 2 mph 2 mph 59 % 0 in
00:35 38.5 °F 25.9 °F 30.1 in Calm   2 mph 60 % 0 in
00:45 38.5 °F 25.9 °F 30.1 in Calm   2 mph 60 % 0 in
00:55 38.5 °F 25.9 °F 30.1 in West 1 mph 2 mph 60 % 0 in
01:05 38.5 °F 25.9 °F 30.1 in WSW 1 mph 2 mph 60 % 0 in
01:15 38.3 °F 25.5 °F 30.1 in WSW 1 mph 2 mph 60 % 0 in
01:25 39 °F 25.9 °F 30.1 in West 1 mph 2 mph 59 % 0 in
01:35 39.2 °F 26.1 °F 30.1 in Calm   2 mph 59 % 0 in
01:45 38.8 °F 26.1 °F 30.1 in Calm   2 mph 60 % 0 in
01:55 39.2 °F 26.1 °F 30.1 in Calm   2 mph 59 % 0 in
02:05 39.4 °F 26.2 °F 30.1 in Calm   2 mph 59 % 0 in
02:15 40.1 °F 27 °F 30.1 in NW 1 mph   59 % 0 in
02:25 40.1 °F 27 °F 30.1 in Calm   2 mph 59 % 0 in
02:35 40.5 °F 27.1 °F 30.1 in West 2 mph 3 mph 59 % 0 in
02:45 41.2 °F 27.9 °F 30.1 in WSW 1 mph 2 mph 59 % 0 in
02:55 42.3 °F 28.6 °F 30.1 in WSW 1 mph 2 mph 58 % 0 in
03:05 44.6 °F 30.7 °F 30.1 in Calm   1 mph 58 % 0 in
03:15 45.3 °F 30.9 °F 30.1 in NW 1 mph 3 mph 57 % 0 in
03:25 45.9 °F 30.9 °F 30.2 in NNE 1 mph 3 mph 56 % 0 in
03:35 46.4 °F 31.5 °F 30.2 in NE 1 mph 3 mph 56 % 0 in
03:45 47.5 °F 32.2 °F 30.1 in NE 1 mph 2 mph 55 % 0 in
03:55 48 °F 32.2 °F 30.2 in NE 3 mph 3 mph 54 % 0 in
04:05 47.7 °F 31.8 °F 30.2 in NE 1 mph 3 mph 54 % 0 in
04:15 48.6 °F 32.2 °F 30.2 in NE 1 mph 2 mph 53 % 0 in
04:25 48.9 °F 32.5 °F 30.2 in NNE 1 mph 3 mph 53 % 0 in
04:35 50.4 °F 33.4 °F 30.2 in NNE 1 mph 2 mph 52 % 0 in
06:45 59.9 °F 39.6 °F 30.1 in ESE 1 mph 2 mph 47 % 0 in
06:55 60.3 °F 40.5 °F 30.1 in SE 1 mph 3 mph 48 % 0 in
07:45 61.5 °F 40.5 °F 30.1 in NNE 1 mph 1 mph 46 % 0 in
07:55 61.7 °F 40.1 °F 30.1 in NNE 2 mph 4 mph 45 % 0 in
10:37 51.1 °F 34.2 °F 30.2 in NW 1.2 mph   52 % 0 in
10:38 51.1 °F 34.2 °F 30.1 in NW 1.4 mph 1.4 mph 52 % 0 in
10:39 50.9 °F 34 °F 30.1 in NW 2.3 mph 2.3 mph 52 % 0 in
10:44 51.3 °F 34.2 °F 30.1 in North 1.2 mph 1.2 mph 52 % 0 in
10:49 52.2 °F 34.5 °F 30.2 in NE 1.2 mph   51 % 0 in
10:54 52.3 °F 34.7 °F 30.2 in ENE 2.6 mph 2.6 mph 51 % 0 in
10:59 52.3 °F 34.7 °F 30.2 in NE 2.3 mph 2.3 mph 51 % 0 in
11:04 52.9 °F 35.2 °F 30.2 in ENE 2.3 mph 2.3 mph 51 % 0 in
11:09 52.7 °F 35.1 °F 30.2 in East 2.6 mph 2.6 mph 51 % 0 in
11:14 53.1 °F 35.4 °F 30.2 in NE 2.3 mph 2.3 mph 51 % 0 in
11:19 53.8 °F 36.1 °F 30.2 in NE 1.6 mph   51 % 0 in
11:24 53.4 °F 35.2 °F 30.2 in East 2.3 mph 2.6 mph 50 % 0 in
11:29 53.8 °F 35.6 °F 30.2 in ENE 2.3 mph 2.3 mph 50 % 0 in
11:34 54.3 °F 36.1 °F 30.2 in ENE 2.3 mph 2.4 mph 50 % 0 in
11:39 54.5 °F 35.8 °F 30.2 in ENE 2.3 mph 2.3 mph 49 % 0 in
11:44 55 °F 36.1 °F 30.2 in SE 2.3 mph 2.3 mph 49 % 0 in
11:49 55.4 °F 36.5 °F 30.1 in NNE 2.3 mph 2.3 mph 49 % 0 in
11:54 55.8 °F 36.9 °F 30.1 in NE 2.3 mph 2.3 mph 49 % 0 in
11:59 56.1 °F 36.7 °F 30.1 in ENE 3.5 mph 3.5 mph 48 % 0 in
12:04 56.3 °F 36.9 °F 30.1 in ENE 2.3 mph 2.3 mph 48 % 0 in
12:09 56.8 °F 37.2 °F 30.1 in NE 1.4 mph 1.4 mph 48 % 0 in
12:14 57.6 °F 37.9 °F 30.1 in East 2.3 mph   48 % 0 in
12:19 58.5 °F 38.8 °F 30.1 in WSW 1.2 mph   48 % 0 in
12:24 59.2 °F 39.6 °F 30.1 in SE 2.3 mph 2.3 mph 48 % 0 in
12:29 59 °F 39.4 °F 30.1 in ESE 2.6 mph 2.6 mph 48 % 0 in
12:58 61.5 °F 41.2 °F 30.1 in Calm   1.1 mph 47 % 0 in
13:03 61.2 °F 40.8 °F 30.1 in NE 2.3 mph 2.3 mph 47 % 0 in
13:08 61.2 °F 40.3 °F 30.1 in NNE 3.6 mph 3.6 mph 46 % 0 in
13:13 61.3 °F 40.5 °F 30.1 in NE 2.3 mph 2.3 mph 46 % 0 in
13:18 61 °F 39.9 °F 30.1 in North 4.6 mph 4.6 mph 46 % 0 in
13:23 61 °F 39.9 °F 30.1 in ENE 3.5 mph 3.5 mph 46 % 0 in
13:28 61.3 °F 40.5 °F 30.1 in North 2.3 mph 2.3 mph 46 % 0 in
13:33 61.3 °F 40.5 °F 30.1 in NNE 2.3 mph 2.3 mph 46 % 0 in
13:57 61.9 °F 40.3 °F 30.1 in NE 2.3 mph 2.3 mph 45 % 0 in
14:02 62.1 °F 39.9 °F 30.1 in ENE 3.5 mph 3.5 mph 44 % 0 in
14:07 62.2 °F 39.9 °F 30.1 in NNE 4.6 mph 4.6 mph 44 % 0 in
14:17 62.4 °F 40.3 °F 30.1 in NNE 3.5 mph 3.5 mph 44 % 0 in
14:22 62.6 °F 39.7 °F 30.1 in ENE 4.6 mph 4.6 mph 43 % 0 in
14:27 62.8 °F 39.9 °F 30.1 in NE 3.5 mph 3.5 mph 43 % 0 in
14:32 63.1 °F 40.3 °F 30.1 in ENE 3.6 mph 3.6 mph 43 % 0 in
14:37 63.3 °F 40.5 °F 30.1 in NNW 2.3 mph 2.3 mph 43 % 0 in
14:42 63.5 °F 39.9 °F 30.1 in ENE 3.5 mph 3.5 mph 42 % 0 in
14:47 63.9 °F 40.3 °F 30.1 in ENE 2.3 mph 2.3 mph 42 % 0 in
14:52 64 °F 40.5 °F 30.1 in NE 3.1 mph 3.1 mph 42 % 0 in
14:57 64.2 °F 40.6 °F 30.1 in NNE 3.5 mph 3.5 mph 42 % 0 in
15:02 64.2 °F 40.6 °F 30.1 in NE 3.5 mph 3.5 mph 42 % 0 in
15:07 64 °F 40.5 °F 30.1 in ENE 2.3 mph 2.3 mph 42 % 0 in
15:12 64 °F 40.5 °F 30.1 in NNW 3.5 mph 3.5 mph 42 % 0 in
15:17 63.5 °F 39.9 °F 30.1 in North 3.5 mph 3.5 mph 42 % 0 in
15:22 63.1 °F 39.7 °F 30.1 in WNW 1.4 mph 1.4 mph 42 % 0 in
15:27 63 °F 39.6 °F 30.1 in North 1.2 mph 1.2 mph 42 % 0 in
15:32 63 °F 39.6 °F 30.1 in NE 2.3 mph 2.3 mph 42 % 0 in
15:37 63.1 °F 39.7 °F 30.1 in NNE 1.6 mph 1.6 mph 42 % 0 in
15:42 63.3 °F 39.7 °F 30.1 in NNE 2.3 mph   42 % 0 in
15:47 63.5 °F 39.9 °F 30.1 in NE 1.2 mph   42 % 0 in
15:52 63.5 °F 39.4 °F 30.1 in North 2 mph 2 mph 41 % 0 in
15:57 63.7 °F 40.1 °F 30.1 in Calm     42 % 0 in
16:02 63.5 °F 39.4 °F 30.1 in NNW 2.3 mph 2.3 mph 41 % 0 in
16:07 63.5 °F 39.4 °F 30.1 in Calm     41 % 0 in
16:13 63.7 °F 39.6 °F 30.1 in Calm     41 % 0 in
16:18 63.7 °F 40.1 °F 30.1 in NNW 1.2 mph 1.2 mph 42 % 0 in
16:23 63.7 °F 39.6 °F 30.1 in Calm     41 % 0 in
16:28 63.5 °F 39.4 °F 30.1 in Calm     41 % 0 in
16:33 63.3 °F 39.2 °F 30.1 in North 1.2 mph   41 % 0 in
16:38 63.1 °F 39 °F 30.1 in North 0.9 mph   41 % 0 in
16:43 62.8 °F 38.7 °F 30.1 in Calm     41 % 0 in
16:48 62.8 °F 38.7 °F 30.1 in NW 1.2 mph 1.2 mph 41 % 0 in
16:53 62.6 °F 38.7 °F 30.1 in North 2.3 mph 2.3 mph 41 % 0 in
16:58 62.2 °F 38.1 °F 30.1 in North 1.6 mph 1.6 mph 41 % 0 in
17:03 62.1 °F 38.1 °F 30.1 in Calm     41 % 0 in
17:08 61.7 °F 37.8 °F 30.1 in Calm     41 % 0 in
17:13 61.3 °F 37.4 °F 30.1 in North 0.9 mph   41 % 0 in
17:18 61 °F 37 °F 30.1 in Calm     41 % 0 in
17:23 60.6 °F 36.9 °F 30.1 in North 1.2 mph   41 % 0 in
17:28 60.3 °F 36.3 °F 30.1 in NNW 1.2 mph   41 % 0 in
17:33 59.9 °F 36.1 °F 30.1 in Calm     41 % 0 in
17:38 59.5 °F 35.8 °F 30.1 in West 1.4 mph 1.4 mph 41 % 0 in
17:43 59.5 °F 35.8 °F 30.1 in Calm     41 % 0 in
17:48 59.2 °F 34.9 °F 30.1 in West 1.2 mph   40 % 0 in
17:53 59.2 °F 34.9 °F 30.1 in West 1.2 mph   40 % 0 in
17:58 58.8 °F 34.5 °F 30.1 in Calm     40 % 0 in
18:03 58.5 °F 34.2 °F 30.1 in West 1.2 mph   40 % 0 in
18:13 57.7 °F 33.6 °F 30.1 in WSW 1.2 mph   40 % 0 in
18:18 57.6 °F 33.4 °F 30.1 in WSW 1.4 mph   40 % 0 in
18:23 57 °F 32.9 °F 30.1 in SW 2.4 mph 2.4 mph 40 % 0 in
18:25 46.9 °F 27.1 °F 30.1 in Calm   1 mph 46 % 0 in
18:28 56.8 °F 32.7 °F 30.1 in WSW 2.3 mph 2.3 mph 40 % 0 in
18:33 57 °F 32.9 °F 30.1 in SSW 1.2 mph   40 % 0 in
18:35 46.8 °F 27 °F 30.1 in West 1 mph 2 mph 46 % 0 in
18:38 56.8 °F 32.7 °F 30.1 in SW 1.4 mph 1.4 mph 40 % 0 in
18:43 57 °F 32.9 °F 30.1 in SW 3.1 mph 3.1 mph 40 % 0 in
18:45 46.9 °F 27.1 °F 30.1 in WSW 1 mph 2 mph 46 % 0 in
18:48 57.2 °F 32.4 °F 30.1 in WSW 2.3 mph 2.3 mph 39 % 0 in
18:53 57.2 °F 32.4 °F 30.1 in West 4.6 mph 4.6 mph 39 % 0 in
18:55 46.6 °F 27.3 °F 30.1 in Calm   2 mph 47 % 0 in
19:03 56.7 °F 32.5 °F 30.1 in WSW 2.3 mph 2.3 mph 40 % 0 in
19:05 46 °F 27 °F 30.1 in Calm     47 % 0 in
19:08 56.1 °F 32.2 °F 30.1 in WSW 1.2 mph 1.2 mph 40 % 0 in
19:13 55.8 °F 31.3 °F 30.1 in Calm     39 % 0 in
19:15 45.9 °F 27.3 °F 30.1 in SW 2 mph 2 mph 48 % 0 in
19:18 55.4 °F 30.7 °F 30.1 in WSW 2.4 mph   39 % 0 in
19:23 55.2 °F 31.3 °F 30.1 in WSW 2.9 mph 2.9 mph 40 % 0 in
19:25 45.5 °F 27 °F 30.1 in SW 1 mph 2 mph 48 % 0 in
19:28 54.9 °F 30.9 °F 30.1 in WSW 2 mph 2 mph 40 % 0 in
19:33 54.9 °F 30.9 °F 30.1 in WSW 1.2 mph 1.4 mph 40 % 0 in
19:35 54.9 °F 30.9 °F 30.1 in WSW 1.6 mph 1.6 mph 40 % 0 in
19:40 54.9 °F 30.9 °F 30.1 in WSW 2 mph 2 mph 40 % 0 in
19:45 54.7 °F 30.7 °F 30.1 in WSW 2 mph 2 mph 40 % 0 in
19:50 54.5 °F 30.6 °F 30.1 in SW 2.3 mph 2.3 mph 40 % 0 in
19:55 54.1 °F 30.4 °F 30.1 in Calm   2 mph 40 % 0 in
20:00 53.8 °F 30 °F 30.1 in WSW 2.9 mph 2.9 mph 40 % 0 in
20:05 53.6 °F 29.8 °F 30.1 in Calm   3 mph 40 % 0 in
20:10 53.4 °F 29.7 °F 30.1 in WSW 2 mph 3 mph 40 % 0 in
20:15 53.4 °F 29.7 °F 30.1 in WSW 2.4 mph 2.4 mph 40 % 0 in
20:20 53.2 °F 29.5 °F 30.1 in WSW 2.3 mph 2.3 mph 40 % 0 in
20:25 53.1 °F 30 °F 30.1 in Calm     41 % 0 in
20:30 52.7 °F 29.7 °F 30.1 in WSW 1.2 mph 1.2 mph 41 % 0 in
20:35 52.5 °F 29.5 °F 30.1 in Calm     41 % 0 in
20:40 52.7 °F 29.7 °F 30.1 in WSW 2.3 mph 2.3 mph 41 % 0 in
20:45 52.7 °F 29.7 °F 30.1 in WSW 1.6 mph 1.6 mph 41 % 0 in
20:50 52.3 °F 29.3 °F 30.1 in Calm     41 % 0 in
20:55 52.2 °F 29.1 °F 30.1 in Calm     41 % 0 in
21:00 52 °F 28.9 °F 30.1 in Calm     41 % 0 in
21:05 51.8 °F 28.8 °F 30.1 in Calm     41 % 0 in
21:10 52 °F 28.9 °F 30.1 in WSW 1.2 mph 1.2 mph 41 % 0 in
21:15 52 °F 29.7 °F 30.1 in SSE 2.3 mph 2.3 mph 42 % 0 in
21:20 51.8 °F 29.5 °F 30.1 in SSE 1.2 mph 1.2 mph 42 % 0 in
21:25 51.8 °F 28.8 °F 30.1 in Calm     41 % 0 in
21:30 51.6 °F 29.3 °F 30.1 in ESE 1.2 mph 1.2 mph 42 % 0 in
21:35 51.4 °F 29.1 °F 30.1 in Calm     42 % 0 in
21:40 51.3 °F 28.9 °F 30.1 in Calm     42 % 0 in
21:45 51.4 °F 29.1 °F 30.1 in Calm     42 % 0 in
21:50 51.3 °F 28.9 °F 30.1 in SW 2 mph   42 % 0 in
21:55 50.4 °F 28 °F 30.1 in WSW 2.4 mph 2.4 mph 42 % 0 in
22:00 49.8 °F 28.2 °F 30.1 in WSW 2.3 mph 2.3 mph 43 % 0 in
22:05 43.2 °F 26.8 °F 30.1 in WSW 1 mph 2 mph 52 % 0 in
22:10 49.8 °F 28.2 °F 30.1 in WSW 2.3 mph 2.3 mph 43 % 0 in
22:15 49.5 °F 27.9 °F 30.1 in SW 2.4 mph 2.4 mph 43 % 0 in
22:20 49.3 °F 27.7 °F 30.1 in WSW 2.3 mph 2.3 mph 43 % 0 in
22:25 49.1 °F 27.5 °F 30.1 in WSW 2 mph   43 % 0 in
22:30 49.3 °F 27.7 °F 30.1 in WSW 2.3 mph 2.3 mph 43 % 0 in
22:35 49.1 °F 28 °F 30.1 in WSW 1.2 mph   44 % 0 in
22:40 49.1 °F 27.5 °F 30.1 in WSW 2.3 mph 2.4 mph 43 % 0 in
22:45 48.7 °F 27.9 °F 30.1 in WSW 2.3 mph 2.3 mph 44 % 0 in
22:50 48.2 °F 27.3 °F 30.1 in West 2.3 mph 2.3 mph 44 % 0 in
22:55 48.4 °F 27.3 °F 30.1 in WSW 2.3 mph 2.3 mph 44 % 0 in
23:00 48.6 °F 27.7 °F 30.1 in WSW 1.4 mph 1.4 mph 44 % 0 in
23:05 48.4 °F 27.3 °F 30.1 in WSW 1.2 mph 1.2 mph 44 % 0 in
23:10 48.2 °F 27.3 °F 30.1 in WSW 1.2 mph   44 % 0 in
23:15 48.2 °F 27.3 °F 30.1 in West 1.2 mph   44 % 0 in
23:20 48.4 °F 28 °F 30.1 in WNW 1.2 mph   45 % 0 in
23:25 48.4 °F 28 °F 30.1 in Calm     45 % 0 in
23:30 48.4 °F 28 °F 30.1 in WNW 2.3 mph 2.3 mph 45 % 0 in
23:35 48.4 °F 28 °F 30.1 in WNW 2 mph 2 mph 45 % 0 in
23:40 48.4 °F 28 °F 30.1 in WNW 1.2 mph   45 % 0 in
23:45 48.6 °F 28.2 °F 30.1 in WNW 1.4 mph 1.4 mph 45 % 0 in
23:50 48.6 °F 28.2 °F 30.1 in WNW 2.3 mph 2.3 mph 45 % 0 in
23:55 48.4 °F 28 °F 30.1 in WNW 1.2 mph 1.2 mph 45 % 0 in
Meteo Sesrovires
Elogis d' Weather Underground - 3.5 mb

Guio original per  Jim McMurry - jmcmurry@mwt.net Adaptat per a la plantilla per  Wim van der Kuil - Leuven-Template.eu

Trobareu la nostra informacio del temps tambe a:

Weather Underground

AWEKAS